createdAt,value
2019-04-03T00:03:14.704Z,99198.75
2019-04-03T00:08:16.353Z,99191.66
2019-04-03T00:13:17.897Z,99185.06
2019-04-03T00:18:19.430Z,99183.36
2019-04-03T00:23:22.364Z,99178.56
2019-04-03T00:28:24.490Z,99180.72
2019-04-03T00:33:26.007Z,99177.02
2019-04-03T00:38:27.647Z,99176.20
2019-04-03T00:43:29.319Z,99170.51
2019-04-03T00:48:30.987Z,99166.55
2019-04-03T00:53:32.523Z,99159.51
2019-04-03T00:58:39.216Z,99156.25
2019-04-03T01:03:41.454Z,99152.50
2019-04-03T01:08:43.100Z,99149.63
2019-04-03T01:13:44.796Z,99138.36
2019-04-03T01:18:46.389Z,99128.02
2019-04-03T01:23:47.919Z,99123.84
2019-04-03T01:28:49.415Z,99111.36
2019-04-03T01:33:51.123Z,99105.28
2019-04-03T01:38:52.652Z,99108.52
2019-04-03T01:43:54.454Z,99110.92
2019-04-03T01:48:56.754Z,99110.34
2019-04-03T01:54:02.370Z,99113.45
2019-04-03T01:59:03.258Z,99099.08
2019-04-03T02:04:05.243Z,99099.88
2019-04-03T02:09:08.592Z,99100.65
2019-04-03T02:14:10.251Z,99084.91
2019-04-03T02:19:11.785Z,99079.60
2019-04-03T02:24:13.356Z,99078.36
2019-04-03T02:29:14.978Z,99077.11
2019-04-03T02:34:16.829Z,99093.09
2019-04-03T02:39:18.386Z,99086.47
2019-04-03T02:44:20.118Z,99079.37
2019-04-03T02:49:22.293Z,99075.94
2019-04-03T02:54:28.848Z,99080.06
2019-04-03T02:59:30.434Z,99083.48
2019-04-03T03:04:32.048Z,99082.76
2019-04-03T03:09:33.891Z,99083.62
2019-04-03T03:14:38.137Z,99083.00
2019-04-03T03:19:39.348Z,99088.46
2019-04-03T03:24:42.138Z,99075.41
2019-04-03T03:29:44.124Z,99068.56
2019-04-03T03:34:56.856Z,99068.31
2019-04-03T03:39:50.658Z,99073.04
2019-04-03T03:44:53.103Z,99070.95
2019-04-03T03:49:55.101Z,99062.52
2019-04-03T03:54:57.024Z,99048.04
2019-04-03T03:59:59.142Z,99043.57
2019-04-03T04:05:01.609Z,99052.73
2019-04-03T04:10:04.382Z,99040.63
2019-04-03T04:15:06.482Z,99040.78
2019-04-03T04:20:08.502Z,99032.25
2019-04-03T04:25:10.227Z,99042.84
2019-04-03T04:30:14.358Z,99051.73
2019-04-03T04:35:15.929Z,99064.09
2019-04-03T04:40:17.460Z,99048.78
2019-04-03T04:45:19.144Z,99041.72
2019-04-03T04:50:20.980Z,99044.06
2019-04-03T04:55:22.684Z,99038.73
2019-04-03T05:00:24.357Z,99037.78
2019-04-03T05:05:27.192Z,99043.82
2019-04-03T05:10:29.413Z,99044.37
2019-04-03T05:15:31.204Z,99037.62
2019-04-03T05:20:33.396Z,99044.95
2019-04-03T05:25:34.918Z,99037.59
2019-04-03T05:30:37.891Z,99038.86
2019-04-03T05:35:39.992Z,99032.20
2019-04-03T05:40:41.570Z,99039.52
2019-04-03T05:45:43.206Z,99046.95
2019-04-03T05:50:45.146Z,99050.27
2019-04-03T05:55:46.761Z,99048.58
2019-04-03T06:00:48.359Z,99035.29
2019-04-03T06:05:50.088Z,99047.67
2019-04-03T06:10:51.897Z,99042.34
2019-04-03T06:15:53.763Z,99029.80
2019-04-03T06:20:55.810Z,99030.19
2019-04-03T06:26:00.724Z,99039.08
2019-04-03T06:31:01.046Z,99024.65
2019-04-03T06:36:02.880Z,99012.46
2019-04-03T06:41:04.437Z,99041.16
2019-04-03T06:46:05.989Z,99012.12
2019-04-03T06:51:08.263Z,98994.83
2019-04-03T06:56:10.459Z,99011.67
2019-04-03T07:01:12.638Z,99006.92
2019-04-03T07:06:14.756Z,99014.98
2019-04-03T07:11:23.174Z,99020.26
2019-04-03T07:16:20.402Z,99004.38
2019-04-03T07:21:22.729Z,98993.66
2019-04-03T07:26:25.035Z,99006.78
2019-04-03T07:31:26.672Z,98998.52
2019-04-03T07:36:28.209Z,98989.22
2019-04-03T07:41:29.767Z,98991.80
2019-04-03T07:46:31.511Z,98992.47
2019-04-03T07:51:34.734Z,98993.69
2019-04-03T07:56:36.272Z,98993.52
2019-04-03T08:01:40.323Z,99007.73
2019-04-03T08:06:41.411Z,99012.83
2019-04-03T08:11:42.935Z,99006.62
2019-04-03T08:16:45.930Z,98994.55
2019-04-03T08:21:48.322Z,98992.09
2019-04-03T08:26:51.975Z,98987.41
2019-04-03T08:31:53.673Z,98991.78
2019-04-03T08:36:55.296Z,98990.34
2019-04-03T08:41:57.288Z,98985.41
2019-04-03T08:46:58.996Z,98982.45
2019-04-03T08:52:00.539Z,98978.77
2019-04-03T08:57:02.338Z,98976.05
2019-04-03T09:02:03.999Z,98977.39
2019-04-03T09:07:05.646Z,98979.53
2019-04-03T09:12:07.995Z,98968.75
2019-04-03T09:17:09.750Z,98965.34
2019-04-03T09:22:11.809Z,98967.94
2019-04-03T09:27:13.549Z,98966.56
2019-04-03T09:32:15.081Z,98963.86
2019-04-03T09:37:18.172Z,98964.34
2019-04-03T09:42:21.338Z,98965.23
2019-04-03T09:47:23.422Z,98960.97
2019-04-03T09:52:37.378Z,98954.09
2019-04-03T09:57:30.186Z,98945.95
2019-04-03T10:02:32.064Z,98944.52
2019-04-03T10:07:36.332Z,98954.39
2019-04-03T10:12:37.224Z,98950.84
2019-04-03T10:17:39.622Z,98947.89
2019-04-03T10:22:41.706Z,98935.57
2019-04-03T10:27:43.724Z,98935.98
2019-04-03T10:32:45.704Z,98911.22
2019-04-03T10:37:47.636Z,98905.63
2019-04-03T10:42:49.342Z,98919.45
2019-04-03T10:47:50.951Z,98927.56
2019-04-03T10:52:52.572Z,98929.64
2019-04-03T10:57:54.219Z,98936.84
2019-04-03T11:02:56.265Z,98924.76
2019-04-03T11:07:58.150Z,98921.96
2019-04-03T11:13:00.896Z,98923.23
2019-04-03T11:18:03.858Z,98913.80
2019-04-03T11:23:08.160Z,98899.77
2019-04-03T11:28:09.348Z,98897.16
2019-04-03T11:33:13.423Z,98889.37
2019-04-03T11:38:24.012Z,98878.30
2019-04-03T11:43:18.084Z,98877.88
2019-04-03T11:48:19.727Z,98877.60
2019-04-03T11:53:21.633Z,98868.23
2019-04-03T11:58:23.453Z,98859.16
2019-04-03T12:03:25.253Z,98838.46
2019-04-03T12:08:28.526Z,98838.39
2019-04-03T12:13:30.769Z,98830.44
2019-04-03T12:18:34.177Z,98833.64
2019-04-03T12:23:38.780Z,98832.81
2019-04-03T12:28:39.579Z,98818.98
2019-04-03T12:33:52.008Z,98803.36
2019-04-03T12:38:44.606Z,98793.52
2019-04-03T12:43:46.161Z,98788.39
2019-04-03T12:48:48.694Z,98789.09
2019-04-03T12:53:51.373Z,98786.18
2019-04-03T12:58:53.132Z,98776.63
2019-04-03T13:03:56.415Z,98768.58
2019-04-03T13:08:58.488Z,98763.70
2019-04-03T13:14:00.376Z,98762.00
2019-04-03T13:19:02.075Z,98761.13
2019-04-03T13:24:04.195Z,98753.32
2019-04-03T13:29:08.179Z,98744.39
2019-04-03T13:34:11.167Z,98740.97
2019-04-03T13:39:12.907Z,98730.81
2019-04-03T13:44:33.959Z,98727.89
2019-04-03T13:49:35.686Z,98719.87
2019-04-03T13:54:37.241Z,98719.02
2019-04-03T13:59:38.767Z,98717.99
2019-04-03T14:04:40.318Z,98713.72
2019-04-03T14:09:41.942Z,98709.53
2019-04-03T14:14:46.777Z,98708.88
2019-04-03T14:19:50.888Z,98706.03
2019-04-03T14:24:52.573Z,98694.94
2019-04-03T14:29:54.322Z,98692.76
2019-04-03T14:35:05.218Z,98677.70
2019-04-03T14:39:59.513Z,98672.73
2019-04-03T14:45:01.351Z,98673.76
2019-04-03T14:50:05.284Z,98669.08
2019-04-03T14:55:17.684Z,98677.64
2019-04-03T15:00:24.595Z,98671.25
2019-04-03T15:05:14.955Z,98668.38
2019-04-03T15:10:16.834Z,98676.28
2019-04-03T15:15:18.518Z,98659.87
2019-04-03T15:20:20.967Z,98664.39
2019-04-03T15:25:22.666Z,98652.78
2019-04-03T15:30:25.460Z,98641.73
2019-04-03T15:35:27.810Z,98631.78
2019-04-03T15:40:29.921Z,98628.77
2019-04-03T15:45:32.040Z,98626.59
2019-04-03T15:50:37.581Z,98614.06
2019-04-03T15:55:39.038Z,98607.41
2019-04-03T16:00:42.809Z,98608.39
2019-04-03T16:05:44.424Z,98599.30
2019-04-03T16:10:46.303Z,98593.98
2019-04-03T16:15:47.861Z,98584.84
2019-04-03T16:20:50.319Z,98583.77
2019-04-03T16:25:52.425Z,98578.94
2019-04-03T16:30:54.531Z,98569.48
2019-04-03T16:35:56.217Z,98559.54
2019-04-03T16:40:58.083Z,98556.95
2019-04-03T16:45:59.941Z,98555.42
2019-04-03T16:51:01.620Z,98549.12
2019-04-03T16:56:05.881Z,98544.17
2019-04-03T17:01:06.886Z,98520.81
2019-04-03T17:06:08.454Z,98520.91
2019-04-03T17:11:12.083Z,98515.84
2019-04-03T17:16:15.088Z,98505.80
2019-04-03T17:21:17.024Z,98511.72
2019-04-03T17:26:18.586Z,98505.63
2019-04-03T17:31:22.901Z,98500.05
2019-04-03T17:36:23.599Z,98500.26
2019-04-03T17:41:25.160Z,98499.45
2019-04-03T17:46:26.716Z,98500.63
2019-04-03T17:51:28.272Z,98496.08
2019-04-03T17:56:29.830Z,98497.89
2019-04-03T18:01:31.419Z,98492.86
2019-04-03T18:06:32.968Z,98493.45
2019-04-03T18:11:34.505Z,98494.09
2019-04-03T18:16:36.065Z,98498.39
2019-04-03T18:21:37.632Z,98498.44
2019-04-03T18:26:39.179Z,98491.86
2019-04-03T18:31:40.739Z,98492.73
2019-04-03T18:36:42.278Z,98493.93
2019-04-03T18:41:43.846Z,98485.36
2019-04-03T18:46:45.406Z,98485.52
2019-04-03T18:51:46.978Z,98482.16
2019-04-03T18:56:48.529Z,98480.38
2019-04-03T19:01:50.062Z,98484.86
2019-04-03T19:06:51.743Z,98472.44
2019-04-03T19:11:53.394Z,98469.13
2019-04-03T19:16:54.958Z,98466.67
2019-04-03T19:21:56.629Z,98467.41
2019-04-03T19:26:58.174Z,98466.30
2019-04-03T19:31:59.736Z,98463.55
2019-04-03T19:37:03.605Z,98457.83
2019-04-03T19:42:04.723Z,98462.73
2019-04-03T19:47:06.261Z,98462.30
2019-04-03T19:52:08.401Z,98455.55
2019-04-03T19:57:10.063Z,98457.61
2019-04-03T20:02:11.625Z,98458.20
2019-04-03T20:07:13.264Z,98448.88
2019-04-03T20:12:14.797Z,98448.54
2019-04-03T20:17:16.332Z,98447.51
2019-04-03T20:22:17.917Z,98444.47
2019-04-03T20:27:19.473Z,98442.21
2019-04-03T20:32:21.217Z,98436.34
2019-04-03T20:37:25.745Z,98434.17
2019-04-03T20:42:27.033Z,98436.28
2019-04-03T20:47:28.566Z,98439.09
2019-04-03T20:52:30.111Z,98427.87
2019-04-03T20:57:33.344Z,98429.84
2019-04-03T21:02:35.096Z,98417.80
2019-04-03T21:07:36.631Z,98419.02
2019-04-03T21:12:38.178Z,98411.73
2019-04-03T21:17:39.819Z,98412.72
2019-04-03T21:22:41.430Z,98411.34
2019-04-03T21:27:42.971Z,98410.17
2019-04-03T21:32:44.520Z,98398.02
2019-04-03T21:37:46.060Z,98399.64
2019-04-03T21:42:47.598Z,98404.64
2019-04-03T21:47:49.148Z,98401.41
2019-04-03T21:52:53.574Z,98401.64
2019-04-03T21:57:54.144Z,98396.00
2019-04-03T22:02:55.689Z,98388.28
2019-04-03T22:07:58.259Z,98392.69
2019-04-03T22:13:00.571Z,98399.68
2019-04-03T22:18:02.375Z,98397.48
2019-04-03T22:23:04.788Z,98393.45
2019-04-03T22:28:07.133Z,98393.69
2019-04-03T22:33:08.897Z,98389.64
2019-04-03T22:38:10.569Z,98384.87
2019-04-03T22:43:15.349Z,98373.88
2019-04-03T22:48:15.859Z,98375.34
2019-04-03T22:53:17.411Z,98369.26
2019-04-03T22:58:21.058Z,98374.10
2019-04-03T23:03:22.511Z,98371.40
2019-04-03T23:08:24.178Z,98366.64
2019-04-03T23:13:25.735Z,98372.28
2019-04-03T23:18:27.313Z,98365.55
2019-04-03T23:23:28.969Z,98364.82
2019-04-03T23:28:33.606Z,98360.70
2019-04-03T23:33:34.274Z,98372.23
2019-04-03T23:38:35.824Z,98382.62
2019-04-03T23:43:39.258Z,98426.34
2019-04-03T23:48:41.086Z,98422.20
2019-04-03T23:53:42.650Z,98412.42
2019-04-03T23:58:44.191Z,98415.50
